イスタンブル の空港の天気 - METARとTAF

アタテュルク国際空港(イスタンブル) ( LTBA / IST ) - トルコ イスタンブル
飛行場実況気象(Metar)
観測時間09/25 08:20 EET (09/25 05:20 UTC)
風向・風速北 9m/s
視程6000m
天気現象
少しの雲 雲底高度 400m
全天の4割程度の雲 雲底高度 820m
全天の8割程度の雲 雲底高度 2440m
気温17℃
湿度77%
気圧1021hPa
METARLTBA 250520Z 35018KT 6000 FEW013 SCT027 BKN080 17/13 Q1021 NOSIG RMK RWY17L 01016KT RWY05 34018KT RWY23 01017G27KT
過去の天気等 Google飛行場航空写真 Wunderground天気予報

過去48時間のMETAR

飛行場予報(TAF)
発表時間: 9/25 07:40 EET (9/25 04:40 UTC)
予報対象時間: 25日9時 EET ~ 26日15時 EET
風向・風速北 10m/s 瞬間風速 15m/s
視程10km以上
天気現象弱いしゅう雨
全天の4割程度の雲 雲底高度 820m
全天の8割程度の雲 雲底高度 2440m
25日9時 EET ~ 25日13時 EET に一時的に
少しの雲 雲底高度 370m
全天の8割程度の雲 雲底高度 760m
26日5時 EET ~ 26日9時 EET に一時的に
全天の4割程度の雲 雲底高度 370m
全天の8割程度の雲 雲底高度 760m
TAF LTBA 250440Z 2506/2612 01020G30KT 9999 -SHRA SCT027 BKN080
TEMPO 2506/2510 FEW012 BKN025
TEMPO 2602/2606 SCT012 BKN025